Time;durP1;ratioP1;P1;durP2;ratioP2;P2;SDS_P1;SDS_P2;PMS_P1;PMS_P2;Temp;Humidity;BMP_temperature;BMP_pressure;BME280_temperature;BME280_humidity;BME280_pressure;Samples;Min_cycle;Max_cycle;Signal;HPM_P1;HPM_P2
2022/07/29 00:01:29;;;;;;;2.72;1.30;;;14.80;99.90;;;;;;5080812;28;20501;-88
2022/07/29 00:03:55;;;;;;;2.67;1.02;;;14.80;99.90;;;;;;5082977;28;20052;-87
2022/07/29 00:06:20;;;;;;;1.13;1.02;;;14.70;99.90;;;;;;5077774;28;20036;-87
2022/07/29 00:08:46;;;;;;;1.13;0.95;;;14.70;99.90;;;;;;5079048;28;20467;-88
2022/07/29 00:11:12;;;;;;;1.58;0.90;;;14.70;99.90;;;;;;5077392;28;20093;-86
2022/07/29 00:13:37;;;;;;;2.33;1.48;;;14.70;99.90;;;;;;5082890;28;20063;-88
2022/07/29 00:16:03;;;;;;;2.00;1.08;;;14.70;99.90;;;;;;5091770;28;20024;-88
2022/07/29 00:18:28;;;;;;;1.65;1.15;;;14.70;99.90;;;;;;5074658;28;20048;-88
2022/07/29 00:20:54;;;;;;;1.23;1.13;;;14.70;99.90;;;;;;5086432;28;20052;-88
2022/07/29 00:23:19;;;;;;;1.77;1.23;;;14.60;99.90;;;;;;5080233;28;20101;-88
2022/07/29 00:25:45;;;;;;;4.00;1.48;;;14.60;99.90;;;;;;5089217;28;20064;-88
2022/07/29 00:28:10;;;;;;;1.85;1.20;;;14.60;99.90;;;;;;5082013;28;20028;-87
2022/07/29 00:30:36;;;;;;;2.78;1.48;;;14.60;99.90;;;;;;5082586;28;20047;-88
2022/07/29 00:33:02;;;;;;;0.90;0.82;;;14.50;99.90;;;;;;5085964;28;20386;-87
2022/07/29 00:35:46;;;;;;;2.53;1.27;;;14.50;99.90;;;;;;5085653;28;20031;-87
2022/07/29 00:38:13;;;;;;;1.42;0.95;;;14.50;99.90;;;;;;5075115;28;20063;-88
2022/07/29 00:40:39;;;;;;;1.35;1.25;;;14.50;99.90;;;;;;5075162;28;20040;-87
2022/07/29 00:43:04;;;;;;;1.33;0.93;;;14.50;99.90;;;;;;5069319;28;20020;-87
2022/07/29 00:45:30;;;;;;;1.10;1.00;;;14.40;99.90;;;;;;5086400;28;20031;-87
2022/07/29 00:47:56;;;;;;;1.75;1.00;;;14.50;99.90;;;;;;5078888;28;20028;-88
2022/07/29 00:50:22;;;;;;;1.52;1.13;;;14.50;99.90;;;;;;5082405;28;20486;-88
2022/07/29 00:52:47;;;;;;;1.40;0.98;;;14.50;99.90;;;;;;5084016;28;20028;-88
2022/07/29 00:55:15;;;;;;;2.25;0.95;;;14.40;99.90;;;;;;5073303;28;20051;-88
2022/07/29 00:57:42;;;;;;;2.17;1.08;;;14.40;99.90;;;;;;5070923;28;20487;-87
2022/07/29 01:00:10;;;;;;;1.42;1.13;;;14.40;99.90;;;;;;5071329;28;20541;-87
2022/07/29 01:02:36;;;;;;;1.70;1.08;;;14.40;99.90;;;;;;5073280;28;20034;-87
2022/07/29 01:05:03;;;;;;;1.27;1.05;;;14.40;99.90;;;;;;5078983;28;20024;-87
2022/07/29 01:07:30;;;;;;;1.52;0.75;;;14.40;99.90;;;;;;5085239;28;20221;-87
2022/07/29 01:09:56;;;;;;;1.92;1.48;;;14.40;99.90;;;;;;5081757;28;20024;-88
2022/07/29 01:12:25;;;;;;;1.08;0.93;;;14.40;99.90;;;;;;5080251;28;20043;-87
2022/07/29 01:14:53;;;;;;;5.85;1.92;;;14.40;99.90;;;;;;5087225;28;20032;-88
2022/07/29 01:17:25;;;;;;;1.35;1.25;;;14.30;99.90;;;;;;5085127;28;20040;-87
2022/07/29 01:20:17;;;;;;;1.33;0.88;;;14.30;99.90;;;;;;5074454;28;20055;-88
2022/07/29 01:23:12;;;;;;;0.73;0.73;;;14.30;99.90;;;;;;5077570;28;20060;-87
2022/07/29 01:25:58;;;;;;;1.10;1.00;;;14.30;99.90;;;;;;5074572;28;20036;-87
2022/07/29 01:29:01;;;;;;;1.65;1.23;;;14.30;99.90;;;;;;5088537;28;20085;-87
2022/07/29 01:31:35;;;;;;;0.75;0.73;;;14.30;99.90;;;;;;5073742;28;20033;-87
2022/07/29 01:34:05;;;;;;;1.67;1.25;;;14.20;99.90;;;;;;5085909;28;20037;-87
2022/07/29 01:36:42;;;;;;;0.80;0.80;;;14.20;99.90;;;;;;5082004;28;20069;-87
2022/07/29 01:39:19;;;;;;;1.98;1.45;;;14.20;99.90;;;;;;5073636;28;20028;-88
2022/07/29 01:42:17;;;;;;;1.40;0.85;;;14.10;99.90;;;;;;5072194;28;20039;-87
2022/07/29 01:45:17;;;;;;;1.10;1.00;;;14.10;99.90;;;;;;5082030;28;20024;-87
2022/07/29 01:48:19;;;;;;;2.83;1.27;;;14.10;99.90;;;;;;5069786;28;20243;-87
2022/07/29 01:50:56;;;;;;;1.23;0.80;;;14.00;99.90;;;;;;5079206;28;20109;-87
2022/07/29 01:53:30;;;;;;;1.85;1.58;;;14.00;99.90;;;;;;5070663;28;20020;-88
2022/07/29 01:55:57;;;;;;;3.22;1.55;;;14.00;99.90;;;;;;5077728;28;20423;-88
2022/07/29 01:58:24;;;;;;;4.05;1.20;;;14.00;99.90;;;;;;5070165;28;20204;-87
2022/07/29 02:00:50;;;;;;;1.10;0.93;;;14.00;99.90;;;;;;5080779;28;20067;-87
2022/07/29 02:03:18;;;;;;;1.13;1.02;;;14.00;99.90;;;;;;5077650;28;20028;-87
2022/07/29 02:05:47;;;;;;;5.85;1.45;;;14.00;99.90;;;;;;5081441;28;20104;-87
2022/07/29 02:08:14;;;;;;;1.90;1.45;;;14.00;99.90;;;;;;5070074;28;20372;-87
2022/07/29 02:10:42;;;;;;;3.70;1.00;;;14.00;99.90;;;;;;5073325;28;20028;-87
2022/07/29 02:13:09;;;;;;;0.90;0.85;;;14.10;99.90;;;;;;5074992;28;20024;-88
2022/07/29 02:15:36;;;;;;;1.13;0.90;;;14.00;99.90;;;;;;5074510;28;21053;-87
2022/07/29 02:18:07;;;;;;;1.75;1.00;;;14.00;99.90;;;;;;5084027;28;20449;-87
2022/07/29 02:20:33;;;;;;;1.30;0.93;;;14.00;99.90;;;;;;5074924;28;20131;-88
2022/07/29 02:23:00;;;;;;;1.30;1.20;;;14.00;99.90;;;;;;5076257;28;20107;-87
2022/07/29 02:25:27;;;;;;;1.08;0.98;;;14.00;99.90;;;;;;5077840;28;20040;-87
2022/07/29 02:27:53;;;;;;;2.97;1.20;;;14.00;99.90;;;;;;5079974;28;20403;-87
2022/07/29 02:30:22;;;;;;;1.50;0.90;;;14.00;99.90;;;;;;5088486;28;20155;-88
2022/07/29 02:32:49;;;;;;;1.25;0.90;;;14.00;99.90;;;;;;5075447;28;20051;-87
2022/07/29 02:35:15;;;;;;;1.08;0.98;;;14.00;99.90;;;;;;5077869;28;20021;-88
2022/07/29 02:37:44;;;;;;;1.92;0.93;;;14.00;99.90;;;;;;5075861;28;20024;-88
2022/07/29 02:40:14;;;;;;;0.90;0.90;;;14.00;99.90;;;;;;5075199;28;20107;-88
2022/07/29 02:42:42;;;;;;;0.90;0.80;;;14.10;99.90;;;;;;5074426;28;20059;-87
2022/07/29 02:45:08;;;;;;;1.10;0.93;;;14.10;99.90;;;;;;5084484;28;20107;-87
2022/07/29 02:47:49;;;;;;;1.00;0.80;;;14.10;99.90;;;;;;5083108;28;20139;-87
2022/07/29 02:50:28;;;;;;;3.08;1.42;;;14.20;99.90;;;;;;5077550;28;20050;-87
2022/07/29 02:53:00;;;;;;;2.28;0.90;;;14.20;99.90;;;;;;5084973;28;20075;-87
2022/07/29 02:55:48;;;;;;;2.45;1.02;;;14.20;99.90;;;;;;5079692;28;20043;-87
2022/07/29 02:58:32;;;;;;;0.90;0.80;;;14.20;99.90;;;;;;5078541;28;20418;-87
2022/07/29 03:01:01;;;;;;;1.73;1.10;;;14.30;99.90;;;;;;5073742;28;20032;-87
2022/07/29 03:03:31;;;;;;;1.38;1.02;;;14.30;99.90;;;;;;5074526;28;20110;-87
2022/07/29 03:05:59;;;;;;;2.05;1.10;;;14.30;99.90;;;;;;5082615;28;20038;-87
2022/07/29 03:08:26;;;;;;;1.67;1.05;;;14.40;99.90;;;;;;5086118;28;20032;-87
2022/07/29 03:10:52;;;;;;;1.08;0.85;;;14.40;99.90;;;;;;5072763;28;20032;-87
2022/07/29 03:13:19;;;;;;;1.42;0.73;;;14.40;99.90;;;;;;5083660;28;20034;-86
2022/07/29 03:15:45;;;;;;;1.77;1.08;;;14.40;99.90;;;;;;5087724;28;20486;-87
2022/07/29 03:18:11;;;;;;;1.30;1.20;;;14.40;99.90;;;;;;5070279;28;20429;-87
2022/07/29 03:20:38;;;;;;;2.17;0.85;;;14.40;99.90;;;;;;5084167;28;20099;-87
2022/07/29 03:23:04;;;;;;;2.90;1.13;;;14.40;99.90;;;;;;5072953;28;20049;-87
2022/07/29 03:25:30;;;;;;;1.52;0.85;;;14.50;99.90;;;;;;5087679;28;20028;-87
2022/07/29 03:27:56;;;;;;;1.08;0.98;;;14.40;99.90;;;;;;5085255;28;20024;-88
2022/07/29 03:30:22;;;;;;;0.85;0.85;;;14.40;99.90;;;;;;5077991;28;20032;-87
2022/07/29 03:32:49;;;;;;;2.83;1.55;;;14.40;99.90;;;;;;5072605;28;20037;-87
2022/07/29 03:35:16;;;;;;;1.75;1.13;;;14.30;99.90;;;;;;5070334;28;20501;-87
2022/07/29 03:37:42;;;;;;;2.50;1.10;;;14.30;99.90;;;;;;5072479;28;20031;-87
2022/07/29 03:40:09;;;;;;;2.25;1.02;;;14.30;99.90;;;;;;5079046;28;20383;-87
2022/07/29 03:42:39;;;;;;;1.45;0.93;;;14.30;99.90;;;;;;5080846;28;20032;-87
2022/07/29 03:45:12;;;;;;;1.10;0.95;;;14.40;99.90;;;;;;5074968;28;20036;-87
2022/07/29 03:47:42;;;;;;;0.65;0.65;;;14.40;99.90;;;;;;5084462;28;20555;-87
2022/07/29 03:50:10;;;;;;;1.00;0.90;;;14.30;99.90;;;;;;5080259;28;20032;-87
2022/07/29 03:52:36;;;;;;;1.00;0.88;;;14.30;99.90;;;;;;5086954;28;20044;-87
2022/07/29 03:55:02;;;;;;;0.73;0.73;;;14.30;99.90;;;;;;5073787;28;20017;-87
2022/07/29 03:57:30;;;;;;;1.50;0.90;;;14.30;99.90;;;;;;5079992;28;20024;-87
2022/07/29 03:59:56;;;;;;;1.27;1.10;;;14.30;99.90;;;;;;5089208;28;20024;-88
2022/07/29 04:02:22;;;;;;;1.70;1.00;;;14.40;99.90;;;;;;5079599;28;20133;-86
2022/07/29 04:04:48;;;;;;;1.23;1.10;;;14.30;99.90;;;;;;5074934;28;20399;-87
2022/07/29 04:07:14;;;;;;;1.10;1.00;;;14.30;99.90;;;;;;5080174;28;20034;-87
2022/07/29 04:09:40;;;;;;;1.52;1.00;;;14.30;99.90;;;;;;5080138;28;20029;-87
2022/07/29 04:12:06;;;;;;;1.55;0.90;;;14.30;99.90;;;;;;5074341;28;20388;-86
2022/07/29 04:14:32;;;;;;;1.55;1.10;;;14.40;99.90;;;;;;5084569;28;20372;-86
2022/07/29 04:16:59;;;;;;;1.30;1.20;;;14.40;99.90;;;;;;5079808;28;20035;-87
2022/07/29 04:19:25;;;;;;;1.05;0.93;;;14.40;99.90;;;;;;5085218;28;20058;-87
2022/07/29 04:21:51;;;;;;;1.15;0.80;;;14.40;99.90;;;;;;5072960;28;20032;-87
2022/07/29 04:24:16;;;;;;;1.42;1.33;;;14.50;99.90;;;;;;5087849;28;20086;-87
2022/07/29 04:26:42;;;;;;;1.83;0.77;;;14.50;99.90;;;;;;5069459;28;20032;-86
2022/07/29 04:29:07;;;;;;;0.88;0.85;;;14.50;99.90;;;;;;5084958;28;20060;-86
2022/07/29 04:31:33;;;;;;;1.40;1.10;;;14.50;99.90;;;;;;5086121;28;20075;-87
2022/07/29 04:33:58;;;;;;;1.17;1.00;;;14.60;99.90;;;;;;5080910;28;20024;-86
2022/07/29 04:36:24;;;;;;;1.75;0.90;;;14.60;99.90;;;;;;5079238;28;20020;-87
2022/07/29 04:38:49;;;;;;;0.77;0.70;;;14.60;99.90;;;;;;5080245;28;20032;-87
2022/07/29 04:41:15;;;;;;;2.00;1.13;;;14.60;99.90;;;;;;5080685;28;20060;-86
2022/07/29 04:43:40;;;;;;;1.88;1.27;;;14.70;99.90;;;;;;5072480;28;20123;-86
2022/07/29 04:46:06;;;;;;;1.20;1.10;;;14.70;99.90;;;;;;5085640;28;20028;-86
2022/07/29 04:48:32;;;;;;;1.40;1.02;;;14.80;99.90;;;;;;5080071;28;20119;-87
2022/07/29 04:50:58;;;;;;;1.27;1.17;;;14.90;99.90;;;;;;5078108;28;20031;-87
2022/07/29 04:53:23;;;;;;;1.38;1.27;;;15.00;99.90;;;;;;5079853;28;20028;-85
2022/07/29 04:55:49;;;;;;;0.88;0.80;;;15.20;99.90;;;;;;5070037;28;20044;-87
2022/07/29 04:58:15;;;;;;;2.90;1.00;;;15.30;99.90;;;;;;5072661;28;20056;-87
2022/07/29 05:00:41;;;;;;;1.27;1.00;;;15.40;99.90;;;;;;5075780;28;20024;-86
2022/07/29 05:03:06;;;;;;;2.00;1.40;;;15.60;99.90;;;;;;5084356;28;20430;-87
2022/07/29 05:05:32;;;;;;;1.10;1.00;;;15.70;99.90;;;;;;5071665;28;20032;-87
2022/07/29 05:07:57;;;;;;;1.30;0.98;;;15.80;99.90;;;;;;5072203;28;20024;-87
2022/07/29 05:10:23;;;;;;;0.60;0.60;;;15.90;99.90;;;;;;5076690;28;20027;-86
2022/07/29 05:12:48;;;;;;;1.77;1.20;;;16.10;99.90;;;;;;5081220;28;20028;-87
2022/07/29 05:15:14;;;;;;;2.28;0.98;;;16.30;99.90;;;;;;5090107;28;20077;-87
2022/07/29 05:17:39;;;;;;;1.02;0.82;;;16.40;99.90;;;;;;5089556;28;20047;-86
2022/07/29 05:20:06;;;;;;;3.25;1.15;;;16.50;99.90;;;;;;5079132;28;20024;-87
2022/07/29 05:22:31;;;;;;;1.17;1.08;;;16.70;99.90;;;;;;5085940;28;20571;-87
2022/07/29 05:24:57;;;;;;;1.02;0.95;;;16.80;99.90;;;;;;5075225;28;20186;-87
2022/07/29 05:27:22;;;;;;;0.95;0.73;;;16.80;99.90;;;;;;5077707;28;20020;-87
2022/07/29 05:29:48;;;;;;;1.70;1.13;;;16.70;99.90;;;;;;5073515;28;20054;-87
2022/07/29 05:32:13;;;;;;;2.58;1.00;;;16.80;99.90;;;;;;5082166;28;20036;-85
2022/07/29 05:34:39;;;;;;;0.95;0.93;;;16.80;99.90;;;;;;5078184;28;20027;-87
2022/07/29 05:37:05;;;;;;;1.00;0.88;;;16.90;99.90;;;;;;5075394;28;20127;-87
2022/07/29 05:39:30;;;;;;;2.22;1.10;;;17.00;99.90;;;;;;5074024;28;20113;-87
2022/07/29 05:41:56;;;;;;;1.02;1.00;;;17.10;99.90;;;;;;5087501;28;20125;-88
2022/07/29 05:44:21;;;;;;;2.05;1.10;;;17.10;99.90;;;;;;5074585;28;20486;-87
2022/07/29 05:46:47;;;;;;;1.42;1.10;;;17.10;99.90;;;;;;5079973;28;20046;-87
2022/07/29 05:49:12;;;;;;;1.40;0.98;;;17.20;99.90;;;;;;5080975;28;20024;-87
2022/07/29 05:51:38;;;;;;;0.93;0.85;;;17.10;99.90;;;;;;5081149;28;20034;-86
2022/07/29 05:54:03;;;;;;;0.80;0.80;;;17.00;99.90;;;;;;5072332;28;20024;-87
2022/07/29 05:56:29;;;;;;;3.75;1.40;;;17.00;99.90;;;;;;5070467;28;20021;-87
2022/07/29 05:58:54;;;;;;;1.20;0.95;;;17.00;99.90;;;;;;5073664;28;20051;-87
2022/07/29 06:01:20;;;;;;;1.45;0.85;;;17.20;99.90;;;;;;5075098;28;20036;-87
2022/07/29 06:03:45;;;;;;;1.65;1.10;;;17.30;99.90;;;;;;5085527;28;20107;-85
2022/07/29 06:06:11;;;;;;;1.23;1.13;;;17.20;99.90;;;;;;5076507;28;20079;-87
2022/07/29 06:08:37;;;;;;;2.92;1.48;;;17.20;99.90;;;;;;5088170;28;20032;-87
2022/07/29 06:11:04;;;;;;;2.55;1.42;;;17.40;99.90;;;;;;5087908;28;20487;-87
2022/07/29 06:13:29;;;;;;;1.60;1.20;;;17.80;99.90;;;;;;5082799;28;20032;-87
2022/07/29 06:15:55;;;;;;;1.63;1.17;;;18.00;99.90;;;;;;5075671;28;20027;-87
2022/07/29 06:18:23;;;;;;;4.30;1.10;;;18.20;99.90;;;;;;5070055;28;20119;-87
2022/07/29 06:20:49;;;;;;;1.05;0.95;;;18.30;99.90;;;;;;5070343;28;20024;-87
2022/07/29 06:23:15;;;;;;;1.55;1.00;;;18.40;99.90;;;;;;5084506;28;20029;-87
2022/07/29 06:25:41;;;;;;;0.93;0.90;;;18.40;99.90;;;;;;5085918;28;20027;-87
2022/07/29 06:28:06;;;;;;;0.98;0.88;;;18.50;99.90;;;;;;5069227;28;20160;-87
2022/07/29 06:30:32;;;;;;;2.80;1.58;;;18.50;99.90;;;;;;5074406;28;20032;-84
2022/07/29 06:32:57;;;;;;;0.85;0.82;;;18.70;99.90;;;;;;5070055;28;20024;-86
2022/07/29 06:35:23;;;;;;;1.20;0.80;;;18.40;99.90;;;;;;5071994;28;20029;-86
2022/07/29 06:37:48;;;;;;;1.58;0.98;;;18.30;99.90;;;;;;5083375;28;20381;-81
2022/07/29 06:42:58;;;;;;;0.90;0.90;;;18.50;98.70;;;;;;5076999;28;20120;-78
2022/07/29 06:45:24;;;;;;;3.80;1.35;;;18.50;99.40;;;;;;5080992;28;20078;-79
2022/07/29 06:47:49;;;;;;;1.70;1.02;;;18.70;99.90;;;;;;5069673;28;20043;-86
2022/07/29 06:50:15;;;;;;;0.85;0.85;;;18.90;99.40;;;;;;5077031;28;20984;-82
2022/07/29 06:52:40;;;;;;;4.35;1.65;;;19.00;98.70;;;;;;5083801;28;20032;-86
2022/07/29 06:55:07;;;;;;;1.33;1.10;;;18.90;97.10;;;;;;5087586;28;20020;-78
2022/07/29 06:57:32;;;;;;;2.17;1.10;;;18.70;97.80;;;;;;5074260;28;20024;-83
2022/07/29 06:59:58;;;;;;;2.45;0.80;;;18.70;98.40;;;;;;5070306;28;20028;-79
2022/07/29 07:02:23;;;;;;;0.63;0.63;;;18.70;98.20;;;;;;5067885;28;20029;-86
2022/07/29 07:04:49;;;;;;;6.68;1.00;;;18.80;98.00;;;;;;5079489;28;20155;-87
2022/07/29 07:07:14;;;;;;;3.47;1.60;;;18.80;98.10;;;;;;5078189;28;20032;-80
2022/07/29 07:09:40;;;;;;;2.40;0.93;;;18.90;97.80;;;;;;5077722;28;20028;-90
2022/07/29 07:12:06;;;;;;;0.73;0.73;;;19.00;97.10;;;;;;5079402;28;20474;-81
2022/07/29 07:14:31;;;;;;;1.42;1.33;;;19.00;95.90;;;;;;5078846;28;20082;-80
2022/07/29 07:16:57;;;;;;;11.68;1.70;;;18.90;97.10;;;;;;5076294;28;20017;-77
2022/07/29 07:19:22;;;;;;;1.05;0.95;;;18.90;96.80;;;;;;5081758;28;20464;-82
2022/07/29 07:21:48;;;;;;;0.98;0.90;;;19.00;97.70;;;;;;5079054;28;20429;-80
2022/07/29 07:24:13;;;;;;;1.38;1.00;;;19.10;97.50;;;;;;5071392;28;20055;-83
2022/07/29 07:26:39;;;;;;;2.30;1.02;;;19.20;96.60;;;;;;5070293;28;20203;-76
2022/07/29 07:29:05;;;;;;;2.22;1.27;;;19.20;95.40;;;;;;5072812;28;20111;-79
2022/07/29 07:31:31;;;;;;;0.82;0.82;;;19.20;95.20;;;;;;5077215;28;20088;-79
2022/07/29 07:33:56;;;;;;;1.05;0.82;;;19.30;96.00;;;;;;5086160;28;20039;-78
2022/07/29 07:36:23;;;;;;;2.03;1.15;;;19.40;95.10;;;;;;5073014;28;20043;-79
2022/07/29 07:38:49;;;;;;;1.38;1.27;;;19.40;94.70;;;;;;5072883;28;20241;-77
2022/07/29 07:41:14;;;;;;;1.15;0.75;;;19.70;93.40;;;;;;5080684;28;20028;-77
2022/07/29 07:43:40;;;;;;;1.33;0.95;;;19.90;93.30;;;;;;5080832;28;20040;-77
2022/07/29 07:46:05;;;;;;;0.98;0.80;;;20.00;93.30;;;;;;5079580;28;20059;-77
2022/07/29 07:48:31;;;;;;;0.95;0.80;;;20.20;92.90;;;;;;5085718;28;20024;-77
2022/07/29 07:50:56;;;;;;;1.13;1.00;;;20.30;91.40;;;;;;5081467;28;20034;-77
2022/07/29 07:53:22;;;;;;;2.78;0.93;;;20.50;92.60;;;;;;5080484;28;20483;-78
2022/07/29 07:55:47;;;;;;;0.82;0.82;;;20.60;91.30;;;;;;5074798;28;20028;-76
2022/07/29 07:58:13;;;;;;;1.42;1.13;;;20.70;89.70;;;;;;5082486;28;20029;-77
2022/07/29 08:00:38;;;;;;;1.00;0.90;;;20.70;88.80;;;;;;5074696;28;20103;-78
2022/07/29 08:03:04;;;;;;;0.90;0.90;;;20.70;89.70;;;;;;5069471;28;20024;-75
2022/07/29 08:05:29;;;;;;;1.92;1.10;;;20.90;87.90;;;;;;5066748;28;20020;-74
2022/07/29 08:07:55;;;;;;;0.80;0.80;;;21.20;86.50;;;;;;5068336;28;20122;-78
2022/07/29 08:13:06;;;;;;;1.08;0.98;;;21.50;84.70;;;;;;5079130;28;20101;-76
2022/07/29 08:15:32;;;;;;;1.88;1.38;;;21.60;84.00;;;;;;5081956;28;20034;-81
2022/07/29 08:17:58;;;;;;;1.10;1.00;;;21.70;80.40;;;;;;5078962;28;20020;-79
2022/07/29 08:20:23;;;;;;;0.88;0.70;;;21.60;78.80;;;;;;5082197;28;20824;-76
2022/07/29 08:22:49;;;;;;;0.88;0.88;;;21.50;79.90;;;;;;5084296;28;20391;-79
2022/07/29 08:25:14;;;;;;;1.30;0.95;;;21.60;78.30;;;;;;5078638;28;20475;-77
2022/07/29 08:27:39;;;;;;;0.82;0.80;;;21.70;78.70;;;;;;5087473;28;20093;-76
2022/07/29 08:30:06;;;;;;;1.08;0.80;;;21.80;77.60;;;;;;5084842;28;20036;-77
2022/07/29 08:32:31;;;;;;;1.15;0.75;;;22.20;76.50;;;;;;5084308;28;20492;-77
2022/07/29 08:34:57;;;;;;;0.70;0.70;;;22.50;78.50;;;;;;5084620;28;20119;-78
2022/07/29 08:37:22;;;;;;;1.45;1.15;;;22.50;73.40;;;;;;5085621;28;20061;-78
2022/07/29 08:39:48;;;;;;;0.80;0.80;;;22.60;76.40;;;;;;5080079;28;20714;-84
2022/07/29 08:42:14;;;;;;;1.95;0.90;;;22.60;72.80;;;;;;5083477;28;20046;-79
2022/07/29 08:44:40;;;;;;;1.15;0.88;;;22.70;69.50;;;;;;5086336;28;20024;-78
2022/07/29 08:47:06;;;;;;;2.10;1.23;;;22.80;72.40;;;;;;5080719;28;20040;-85
2022/07/29 08:49:34;;;;;;;0.68;0.63;;;22.90;70.60;;;;;;5084374;28;20202;-82
2022/07/29 08:52:00;;;;;;;1.15;1.05;;;23.00;70.20;;;;;;5082026;28;20573;-82
2022/07/29 08:54:27;;;;;;;0.85;0.80;;;23.20;66.90;;;;;;5072022;28;20115;-86
2022/07/29 08:56:53;;;;;;;13.38;1.30;;;23.30;68.30;;;;;;5069401;28;20024;-81
2022/07/29 08:59:21;;;;;;;3.42;1.08;;;23.50;66.20;;;;;;5075016;28;20051;-83
2022/07/29 09:01:48;;;;;;;1.15;0.80;;;23.60;64.80;;;;;;5071519;28;20482;-83
2022/07/29 09:04:15;;;;;;;0.60;0.60;;;23.50;64.00;;;;;;5067073;28;20054;-82
2022/07/29 09:06:46;;;;;;;1.23;1.02;;;23.30;64.00;;;;;;5075864;28;20021;-88
2022/07/29 09:09:13;;;;;;;;;;;23.30;63.10;;;;;;5071144;28;20791;-84
2022/07/29 09:11:39;;;;;;;0.70;0.70;;;23.30;63.80;;;;;;5076618;28;20282;-85
2022/07/29 09:14:05;;;;;;;0.85;0.80;;;23.40;63.10;;;;;;5072515;28;20021;-83
2022/07/29 09:16:50;;;;;;;0.75;0.75;;;23.50;61.60;;;;;;5068589;28;20052;-83
2022/07/29 09:19:45;;;;;;;1.30;1.00;;;23.60;64.60;;;;;;5080066;28;20170;-83
2022/07/29 09:22:11;;;;;;;0.70;0.70;;;23.80;60.60;;;;;;5071487;28;20033;-85
2022/07/29 09:24:45;;;;;;;0.85;0.85;;;24.10;63.80;;;;;;5076544;28;20104;-84
2022/07/29 09:27:28;;;;;;;1.17;0.85;;;24.30;63.10;;;;;;5071419;28;20028;-83
2022/07/29 09:30:10;;;;;;;1.92;1.30;;;24.70;62.40;;;;;;5077965;28;20054;-83
2022/07/29 09:32:55;;;;;;;0.85;0.80;;;24.80;57.30;;;;;;5070764;28;20425;-82
2022/07/29 09:35:23;;;;;;;0.70;0.70;;;24.80;57.90;;;;;;5075979;28;20085;-81
2022/07/29 09:37:51;;;;;;;0.80;0.80;;;24.90;56.70;;;;;;5079673;28;20040;-81
2022/07/29 09:40:20;;;;;;;1.17;0.80;;;24.70;56.60;;;;;;5071640;28;21614;-80
2022/07/29 09:42:46;;;;;;;0.98;0.80;;;24.70;56.20;;;;;;5083808;28;20032;-82
2022/07/29 09:45:25;;;;;;;1.30;0.80;;;24.70;55.70;;;;;;5079803;28;20038;-82
2022/07/29 09:47:50;;;;;;;4.40;0.82;;;24.70;55.70;;;;;;5070907;28;20056;-79
2022/07/29 09:50:19;;;;;;;0.93;0.88;;;24.80;56.40;;;;;;5067158;28;20056;-81
2022/07/29 09:52:50;;;;;;;1.00;1.00;;;24.60;53.80;;;;;;5084266;28;20024;-83
2022/07/29 09:55:16;;;;;;;1.63;1.05;;;24.30;56.00;;;;;;5084354;28;20032;-81
2022/07/29 09:57:41;;;;;;;1.52;1.00;;;24.20;55.00;;;;;;5071401;28;20025;-80
2022/07/29 10:00:15;;;;;;;0.98;0.82;;;24.10;54.50;;;;;;5088055;28;20032;-80
2022/07/29 10:02:45;;;;;;;1.13;0.77;;;24.00;55.00;;;;;;5073064;28;20036;-83
2022/07/29 10:05:21;;;;;;;0.70;0.70;;;23.90;55.40;;;;;;5089388;28;20035;-83
2022/07/29 10:07:52;;;;;;;1.48;0.70;;;23.80;55.80;;;;;;5087383;28;20035;-81
2022/07/29 10:10:23;;;;;;;0.85;0.70;;;24.00;56.30;;;;;;5070828;28;20815;-80
2022/07/29 10:12:55;;;;;;;0.90;0.90;;;24.30;56.20;;;;;;5069870;28;20086;-80
2022/07/29 10:15:23;;;;;;;0.85;0.85;;;24.90;57.80;;;;;;5072268;28;20090;-81
2022/07/29 10:17:50;;;;;;;0.80;0.70;;;25.30;56.30;;;;;;5076955;28;20028;-82
2022/07/29 10:20:15;;;;;;;0.65;0.65;;;25.50;53.60;;;;;;5073210;28;20038;-79
2022/07/29 10:22:41;;;;;;;1.38;1.00;;;25.50;52.90;;;;;;5070147;28;20028;-79
2022/07/29 10:25:08;;;;;;;0.60;0.60;;;25.60;52.90;;;;;;5066170;28;20024;-81
2022/07/29 10:27:35;;;;;;;0.77;0.70;;;26.10;53.60;;;;;;5078548;28;20052;-77
2022/07/29 10:30:01;;;;;;;2.25;1.30;;;26.20;53.60;;;;;;5083539;28;20024;-81
2022/07/29 10:32:36;;;;;;;4.22;1.08;;;26.40;52.30;;;;;;5075343;28;20078;-81
2022/07/29 10:35:32;;;;;;;5.95;1.15;;;26.80;51.50;;;;;;5071774;28;20016;-78
2022/07/29 10:38:21;;;;;;;1.77;1.25;;;26.70;50.40;;;;;;5069530;28;20127;-78
2022/07/29 10:43:46;;;;;;;0.70;0.70;;;26.40;49.90;;;;;;5073898;28;20055;-77
2022/07/29 10:46:14;;;;;;;0.73;0.68;;;26.30;52.20;;;;;;5075973;28;20036;-84
2022/07/29 10:48:58;;;;;;;0.70;0.70;;;;;;;;;;5080093;28;20058;-83
2022/07/29 10:51:24;;;;;;;7.63;5.25;;;25.40;50.80;;;;;;5082572;28;20035;-79
2022/07/29 10:53:51;;;;;;;2.63;1.27;;;;;;;;;;5079724;28;20025;-84
2022/07/29 10:56:24;;;;;;;4.43;0.63;;;;;;;;;;5076629;28;20070;-83
2022/07/29 10:59:10;;;;;;;0.90;0.90;;;;;;;;;;5072714;28;20406;-79
2022/07/29 11:01:36;;;;;;;0.77;0.77;;;;;;;;;;5087430;28;20032;-82
2022/07/29 11:04:04;;;;;;;1.45;0.85;;;;;;;;;;5078654;28;20024;-84
2022/07/29 11:06:49;;;;;;;0.93;0.82;;;;;;;;;;5072409;28;20487;-81
2022/07/29 11:09:18;;;;;;;0.70;0.70;;;;;;;;;;5074062;28;20036;-84
2022/07/29 11:11:44;;;;;;;1.02;0.90;;;;;;;;;;5077213;28;20027;-87
2022/07/29 11:14:10;;;;;;;0.73;0.70;;;;;;;;;;5072641;28;20022;-85
2022/07/29 11:16:56;;;;;;;0.70;0.70;;;;;;;;;;5073459;28;20119;-83
2022/07/29 11:19:22;;;;;;;0.82;0.80;;;;;;;;;;5072346;28;20041;-83
2022/07/29 11:21:49;;;;;;;0.73;0.73;;;;;;;;;;5074321;28;20028;-85
2022/07/29 11:24:17;;;;;;;2.60;1.10;;;;;;;;;;5083650;28;20316;-92
2022/07/29 11:26:43;;;;;;;0.88;0.82;;;;;;;;;;5076076;28;20028;-83
2022/07/29 11:29:18;;;;;;;1.85;0.88;;;;;;;;;;5074923;28;20538;-86
2022/07/29 11:32:11;;;;;;;1.27;0.80;;;;;;;;;;5071791;28;20127;-84
2022/07/29 11:34:40;;;;;;;0.70;0.65;;;;;;;;;;5070721;28;20020;-85
2022/07/29 11:37:09;;;;;;;1.73;1.00;;;;;;;;;;5081938;28;20029;-85
2022/07/29 11:39:36;;;;;;;1.73;0.60;;;;;;;;;;5075920;28;20458;-83
2022/07/29 11:42:17;;;;;;;1.13;1.05;;;;;;;;;;5082694;28;20032;-83
2022/07/29 11:44:58;;;;;;;1.30;1.00;;;;;;;;;;5073270;28;20414;-83
2022/07/29 11:47:24;;;;;;;0.90;0.90;;;;;;;;;;5073301;28;20119;-85
2022/07/29 11:49:51;;;;;;;1.98;0.80;;;;;;;;;;5090282;28;20488;-85
2022/07/29 11:52:18;;;;;;;0.80;0.80;;;;;;;;;;5080066;28;20043;-83
2022/07/29 11:54:45;;;;;;;0.90;0.90;;;;;;;;;;5078864;28;20391;-83
2022/07/29 11:57:11;;;;;;;1.00;0.80;;;;;;;;;;5086387;28;20387;-85
2022/07/29 11:59:41;;;;;;;0.80;0.80;;;;;;;;;;5076226;28;20025;-85
2022/07/29 12:02:08;;;;;;;0.85;0.85;;;;;;;;;;5080370;28;20503;-81
2022/07/29 12:04:34;;;;;;;4.25;1.73;;;;;;;;;;5081458;28;20028;-86
2022/07/29 12:07:00;;;;;;;1.10;1.00;;;;;;;;;;5073193;28;20029;-90
2022/07/29 12:09:26;;;;;;;1.00;0.90;;;;;;;;;;5076207;28;20128;-88
2022/07/29 12:11:59;;;;;;;1.40;1.10;;;;;;;;;;5074659;28;20107;-86
2022/07/29 12:14:26;;;;;;;1.38;1.00;;;;;;;;;;5074964;28;20031;-87
2022/07/29 12:16:52;;;;;;;1.38;1.13;;;;;;;;;;5076771;28;20043;-84
2022/07/29 12:19:18;;;;;;;1.58;1.10;;;;;;;;;;5088785;28;20020;-83
2022/07/29 12:21:47;;;;;;;1.05;1.00;;;;;;;;;;5071970;28;20032;-84
2022/07/29 12:24:14;;;;;;;1.20;1.10;;;;;;;;;;5083117;28;20035;-81
2022/07/29 12:26:52;;;;;;;2.72;1.75;;;;;;;;;;5073996;28;20467;-83
2022/07/29 12:29:19;;;;;;;1.13;1.02;;;;;;;;;;5091668;28;20043;-83
2022/07/29 12:31:46;;;;;;;1.65;1.30;;;;;;;;;;5081663;28;20041;-83
2022/07/29 12:34:12;;;;;;;1.67;1.20;;;;;;;;;;5083129;28;20059;-82
2022/07/29 12:36:38;;;;;;;2.92;1.42;;;;;;;;;;5078575;28;20031;-88
2022/07/29 12:39:05;;;;;;;1.38;1.27;;;;;;;;;;5073404;28;20051;-80
2022/07/29 12:41:31;;;;;;;1.48;1.38;;;;;;;;;;5088709;28;20158;-82
2022/07/29 12:43:57;;;;;;;1.50;1.40;;;;;;;;;;5081997;28;20051;-84
2022/07/29 12:46:23;;;;;;;4.70;1.38;;;;;;;;;;5072420;28;20153;-82
2022/07/29 12:48:58;;;;;;;2.97;1.27;;;;;;;;;;5080099;28;20044;-86
2022/07/29 12:51:36;;;;;;;4.00;1.95;;;;;;;;;;5077295;28;20130;-87
2022/07/29 12:54:04;;;;;;;1.67;1.45;;;;;;;;;;5074712;28;20021;-88
2022/07/29 12:56:29;;;;;;;1.35;1.25;;;;;;;;;;5076873;28;20051;-86
2022/07/29 12:58:55;;;;;;;1.33;1.20;;;;;;;;;;5071568;28;20136;-79
2022/07/29 13:01:21;;;;;;;3.65;1.30;;;;;;;;;;5076283;28;20096;-88
2022/07/29 13:03:56;;;;;;;1.50;1.33;;;;;;;;;;5085479;28;20028;-87
2022/07/29 13:06:28;;;;;;;1.30;1.20;;;;;;;;;;5081271;28;20089;-79
2022/07/29 13:09:01;;;;;;;1.40;1.30;;;;;;;;;;5079432;28;20131;-83
2022/07/29 13:11:28;;;;;;;3.67;1.10;;;;;;;;;;5083964;28;20032;-80
2022/07/29 13:13:54;;;;;;;1.65;1.35;;;;;;;;;;5082022;28;20044;-86
2022/07/29 13:16:20;;;;;;;1.40;1.17;;;;;;;;;;5070430;28;20105;-81
2022/07/29 13:18:46;;;;;;;1.98;1.52;;;;;;;;;;5076585;28;20020;-79
2022/07/29 13:21:15;;;;;;;1.83;1.50;;;;;;;;;;5083496;28;20047;-85
2022/07/29 13:23:42;;;;;;;1.52;1.40;;;;;;;;;;5083530;28;20036;-79